createdAt,value
2022-09-28T00:02:10.517Z,180.30
2022-09-28T00:04:38.126Z,180.10
2022-09-28T00:07:05.602Z,183.20
2022-09-28T00:09:34.571Z,184.43
2022-09-28T00:12:02.516Z,185.27
2022-09-28T00:14:31.457Z,187.97
2022-09-28T00:16:58.963Z,188.60
2022-09-28T00:19:26.578Z,183.23
2022-09-28T00:21:54.072Z,184.30
2022-09-28T00:24:26.610Z,186.57
2022-09-28T00:26:58.795Z,184.97
2022-09-28T00:29:27.791Z,186.60
2022-09-28T00:31:59.857Z,186.67
2022-09-28T00:34:27.930Z,181.00
2022-09-28T00:36:55.581Z,180.30
2022-09-28T00:39:23.308Z,176.87
2022-09-28T00:41:51.071Z,181.93
2022-09-28T00:44:41.936Z,181.77
2022-09-28T00:47:32.123Z,180.03
2022-09-28T00:50:03.017Z,181.33
2022-09-28T00:52:34.842Z,181.57
2022-09-28T00:55:05.460Z,181.17
2022-09-28T00:57:33.326Z,178.93
2022-09-28T01:00:03.191Z,178.73
2022-09-28T01:02:30.764Z,180.37
2022-09-28T01:04:59.087Z,181.90
2022-09-28T01:07:26.776Z,182.07
2022-09-28T01:09:54.980Z,182.00
2022-09-28T01:12:22.520Z,181.57
2022-09-28T01:14:50.347Z,170.33
2022-09-28T01:17:24.395Z,170.40
2022-09-28T01:20:05.386Z,171.83
2022-09-28T01:22:48.447Z,173.70
2022-09-28T01:25:25.997Z,168.77
2022-09-28T01:27:56.019Z,169.93
2022-09-28T01:30:23.728Z,175.00
2022-09-28T01:32:54.574Z,174.37
2022-09-28T01:35:25.255Z,173.97
2022-09-28T01:37:54.216Z,174.23
2022-09-28T01:40:24.005Z,178.30
2022-09-28T01:42:55.959Z,180.47
2022-09-28T01:45:25.345Z,174.77
2022-09-28T01:47:55.355Z,180.00
2022-09-28T01:50:24.692Z,178.57
2022-09-28T01:52:55.697Z,177.83
2022-09-28T01:55:29.868Z,176.97
2022-09-28T01:58:03.261Z,176.43
2022-09-28T02:00:30.911Z,176.13
2022-09-28T02:03:07.631Z,175.90
2022-09-28T02:05:37.207Z,178.50
2022-09-28T02:08:07.873Z,178.13
2022-09-28T02:10:40.556Z,182.13
2022-09-28T02:13:13.486Z,180.37
2022-09-28T02:15:44.242Z,183.87
2022-09-28T02:18:11.811Z,182.40
2022-09-28T02:20:40.896Z,181.57
2022-09-28T02:23:08.927Z,175.23
2022-09-28T02:25:40.788Z,181.83
2022-09-28T02:28:11.154Z,184.00
2022-09-28T02:30:40.899Z,182.40
2022-09-28T02:33:12.768Z,180.97
2022-09-28T02:35:40.714Z,179.10
2022-09-28T02:38:08.221Z,182.47
2022-09-28T02:40:37.753Z,178.13
2022-09-28T02:43:13.060Z,178.07
2022-09-28T02:45:49.246Z,182.53
2022-09-28T02:48:42.689Z,186.67
2022-09-28T02:51:19.920Z,184.23
2022-09-28T02:54:04.371Z,183.93
2022-09-28T02:56:42.567Z,186.40
2022-09-28T02:59:19.115Z,180.03
2022-09-28T03:01:52.881Z,182.03
2022-09-28T03:04:29.239Z,179.73
2022-09-28T03:07:01.320Z,178.43
2022-09-28T03:09:33.718Z,186.60
2022-09-28T03:12:05.961Z,186.37
2022-09-28T03:14:34.936Z,184.40
2022-09-28T03:17:02.438Z,188.80
2022-09-28T03:19:32.553Z,187.17
2022-09-28T03:22:00.130Z,188.20
2022-09-28T03:24:27.659Z,191.33
2022-09-28T03:26:55.423Z,188.97
2022-09-28T03:29:22.912Z,184.80
2022-09-28T03:31:51.805Z,187.50
2022-09-28T03:34:19.667Z,186.40
2022-09-28T03:36:47.144Z,188.70
2022-09-28T03:39:14.731Z,186.30
2022-09-28T03:41:42.602Z,190.70
2022-09-28T03:44:10.078Z,192.17
2022-09-28T03:46:37.583Z,188.27
2022-09-28T03:49:06.422Z,184.33
2022-09-28T03:51:33.927Z,186.70
2022-09-28T03:54:01.684Z,179.67
2022-09-28T03:56:29.189Z,183.10
2022-09-28T03:58:56.678Z,188.17
2022-09-28T04:01:24.205Z,185.27
2022-09-28T04:03:55.024Z,176.43
2022-09-28T04:06:23.967Z,176.53
2022-09-28T04:08:51.514Z,181.87
2022-09-28T04:11:19.053Z,177.90
2022-09-28T04:13:49.395Z,183.20
2022-09-28T04:16:17.891Z,185.70
2022-09-28T04:18:45.494Z,188.50
2022-09-28T04:21:14.024Z,183.17
2022-09-28T04:23:43.246Z,191.47
2022-09-28T04:26:16.495Z,174.77
2022-09-28T04:29:06.190Z,192.57
2022-09-28T04:31:39.117Z,173.63
2022-09-28T04:34:06.674Z,172.63
2022-09-28T04:36:34.246Z,116.50
2022-09-28T04:39:03.151Z,133.10
2022-09-28T04:41:30.668Z,134.57
2022-09-28T04:43:58.162Z,138.33
2022-09-28T04:46:26.046Z,129.90
2022-09-28T04:48:53.542Z,130.13
2022-09-28T04:51:21.052Z,138.23
2022-09-28T04:53:48.547Z,140.10
2022-09-28T04:56:18.560Z,139.37
2022-09-28T04:58:51.786Z,137.27
2022-09-28T05:01:20.966Z,138.40
2022-09-28T05:03:48.527Z,145.73
2022-09-28T05:06:16.567Z,141.47
2022-09-28T05:08:46.665Z,147.90
2022-09-28T05:11:15.103Z,140.13
2022-09-28T05:13:45.662Z,144.90
2022-09-28T05:16:15.681Z,134.20
2022-09-28T05:18:43.626Z,148.17
2022-09-28T05:21:12.678Z,138.30
2022-09-28T05:23:40.223Z,141.60
2022-09-28T05:26:08.040Z,143.17
2022-09-28T05:28:35.569Z,145.30
2022-09-28T05:31:05.372Z,147.23
2022-09-28T05:33:33.729Z,150.63
2022-09-28T05:36:02.050Z,147.87
2022-09-28T05:38:30.128Z,142.93
2022-09-28T05:40:57.902Z,151.47
2022-09-28T05:43:25.744Z,146.43
2022-09-28T05:45:55.810Z,152.87
2022-09-28T05:48:25.022Z,147.40
2022-09-28T05:50:52.999Z,151.37
2022-09-28T05:53:20.694Z,152.00
2022-09-28T05:55:48.196Z,153.00
2022-09-28T05:58:15.754Z,155.57
2022-09-28T06:00:43.724Z,156.97
2022-09-28T06:03:12.531Z,137.33
2022-09-28T06:05:41.661Z,152.47
2022-09-28T06:08:11.505Z,141.27
2022-09-28T06:10:39.255Z,144.83
2022-09-28T06:13:07.415Z,147.07
2022-09-28T06:15:36.087Z,148.10
2022-09-28T06:18:05.278Z,145.83
2022-09-28T06:20:34.898Z,138.70
2022-09-28T06:23:04.231Z,146.97
2022-09-28T06:25:31.733Z,143.23
2022-09-28T06:28:00.602Z,148.80
2022-09-28T06:30:29.617Z,148.97
2022-09-28T06:32:58.124Z,147.37
2022-09-28T06:35:27.155Z,143.53
2022-09-28T06:37:55.020Z,149.37
2022-09-28T06:40:24.771Z,145.53
2022-09-28T06:42:56.975Z,150.97
2022-09-28T06:45:25.271Z,148.47
2022-09-28T06:47:57.339Z,149.57
2022-09-28T06:50:25.878Z,145.87
2022-09-28T06:52:53.775Z,151.77
2022-09-28T06:55:21.673Z,144.47
2022-09-28T06:57:58.926Z,149.77
2022-09-28T07:00:26.766Z,143.00
2022-09-28T07:02:54.321Z,149.27
2022-09-28T07:05:27.072Z,148.87
2022-09-28T07:07:56.167Z,143.17
2022-09-28T07:10:24.265Z,144.93
2022-09-28T07:12:53.271Z,144.67
2022-09-28T07:15:21.276Z,135.77
2022-09-28T07:18:00.537Z,145.10
2022-09-28T07:20:30.479Z,139.13
2022-09-28T07:23:10.422Z,139.73
2022-09-28T07:25:45.292Z,147.57
2022-09-28T07:28:14.660Z,144.97
2022-09-28T07:30:44.186Z,150.37
2022-09-28T07:33:14.300Z,147.87
2022-09-28T07:35:42.900Z,144.17
2022-09-28T07:38:11.492Z,146.53
2022-09-28T07:40:56.916Z,148.87
2022-09-28T07:43:25.896Z,147.03
2022-09-28T07:45:55.596Z,140.47
2022-09-28T07:48:23.747Z,146.17
2022-09-28T07:50:52.171Z,146.33
2022-09-28T07:53:20.153Z,141.97
2022-09-28T07:55:51.928Z,143.73
2022-09-28T07:58:20.269Z,142.93
2022-09-28T08:00:49.683Z,147.57
2022-09-28T08:03:17.703Z,146.07
2022-09-28T08:05:46.784Z,144.27
2022-09-28T08:08:14.804Z,142.80
2022-09-28T08:10:46.993Z,144.47
2022-09-28T08:13:16.318Z,142.37
2022-09-28T08:15:43.831Z,144.33
2022-09-28T08:18:12.788Z,147.53
2022-09-28T08:20:57.747Z,146.37
2022-09-28T08:23:26.016Z,147.27
2022-09-28T08:25:53.871Z,140.67
2022-09-28T08:28:22.507Z,149.00
2022-09-28T08:30:50.609Z,140.73
2022-09-28T08:33:21.269Z,144.00
2022-09-28T08:35:49.673Z,148.23
2022-09-28T08:38:17.587Z,148.87
2022-09-28T08:40:51.393Z,147.97
2022-09-28T08:43:33.921Z,145.33
2022-09-28T08:46:01.805Z,149.43
2022-09-28T08:48:52.408Z,148.87
2022-09-28T08:51:31.995Z,147.30
2022-09-28T08:54:04.854Z,139.13
2022-09-28T08:56:40.271Z,151.93
2022-09-28T08:59:12.814Z,147.37
2022-09-28T09:01:45.999Z,152.63
2022-09-28T09:04:15.221Z,153.37
2022-09-28T09:06:55.205Z,148.53
2022-09-28T09:09:29.326Z,148.90
2022-09-28T09:12:06.241Z,149.43
2022-09-28T09:15:15.511Z,147.30
2022-09-28T09:17:49.776Z,153.43
2022-09-28T09:20:21.263Z,144.57
2022-09-28T09:22:57.678Z,150.97
2022-09-28T09:25:28.250Z,153.67
2022-09-28T09:28:26.202Z,152.87
2022-09-28T09:31:01.430Z,149.53
2022-09-28T09:33:43.694Z,153.33
2022-09-28T09:36:21.855Z,149.93
2022-09-28T09:38:57.999Z,156.67
2022-09-28T09:41:35.288Z,157.10
2022-09-28T09:44:31.372Z,158.40
2022-09-28T09:47:01.958Z,144.43
2022-09-28T09:49:35.064Z,149.03
2022-09-28T09:52:07.323Z,156.83
2022-09-28T09:54:38.731Z,157.37
2022-09-28T09:57:11.417Z,160.70
2022-09-28T09:59:41.321Z,161.07
2022-09-28T10:02:16.976Z,158.37
2022-09-28T10:04:46.858Z,159.50
2022-09-28T10:07:22.260Z,149.47
2022-09-28T10:09:50.679Z,161.30
2022-09-28T10:12:21.047Z,146.73
2022-09-28T10:14:49.479Z,150.63
2022-09-28T10:17:20.090Z,156.73
2022-09-28T10:19:47.670Z,156.07
2022-09-28T10:22:19.065Z,146.17
2022-09-28T10:24:48.747Z,151.33
2022-09-28T10:27:18.636Z,149.13
2022-09-28T10:29:51.936Z,161.07
2022-09-28T10:32:22.274Z,157.33
2022-09-28T10:34:51.045Z,160.43
2022-09-28T10:37:20.420Z,159.73
2022-09-28T10:39:52.171Z,159.87
2022-09-28T10:42:22.355Z,159.13
2022-09-28T10:44:52.788Z,161.63
2022-09-28T10:47:21.256Z,158.97
2022-09-28T10:49:50.782Z,160.07
2022-09-28T10:52:37.626Z,160.40
2022-09-28T10:55:26.094Z,160.47
2022-09-28T10:57:53.900Z,159.47
2022-09-28T11:00:32.249Z,155.97
2022-09-28T11:03:00.275Z,159.57
2022-09-28T11:05:28.619Z,161.03
2022-09-28T11:07:58.490Z,160.97
2022-09-28T11:10:28.427Z,160.80
2022-09-28T11:12:56.756Z,161.43
2022-09-28T11:15:28.236Z,158.97
2022-09-28T11:17:55.751Z,162.17
2022-09-28T11:20:35.497Z,162.97
2022-09-28T11:23:20.387Z,162.33
2022-09-28T11:25:58.520Z,159.57
2022-09-28T11:28:32.651Z,162.00
2022-09-28T11:31:01.380Z,162.47
2022-09-28T11:33:32.916Z,160.93
2022-09-28T11:36:11.802Z,160.73
2022-09-28T11:38:47.414Z,164.77
2022-09-28T11:41:25.794Z,163.27
2022-09-28T11:44:03.930Z,164.57
2022-09-28T11:46:35.164Z,155.67
2022-09-28T11:49:08.191Z,156.73
2022-09-28T11:51:37.437Z,162.03
2022-09-28T11:54:14.194Z,152.63
2022-09-28T11:56:44.250Z,159.57
2022-09-28T11:59:14.376Z,163.57
2022-09-28T12:01:45.272Z,165.73
2022-09-28T12:04:16.395Z,169.17
2022-09-28T12:06:48.280Z,164.43
2022-09-28T12:09:22.443Z,171.50
2022-09-28T12:11:52.595Z,167.83
2022-09-28T12:14:22.526Z,163.47
2022-09-28T12:17:05.304Z,168.10
2022-09-28T12:19:36.783Z,166.27
2022-09-28T12:22:06.663Z,161.47
2022-09-28T12:24:40.023Z,163.10
2022-09-28T12:27:12.939Z,166.97
2022-09-28T12:29:42.810Z,165.27
2022-09-28T12:32:15.306Z,165.33
2022-09-28T12:34:43.185Z,168.80
2022-09-28T12:37:33.016Z,166.93
2022-09-28T12:40:20.775Z,166.80
2022-09-28T12:43:05.225Z,168.80
2022-09-28T12:46:06.686Z,166.27
2022-09-28T12:48:56.666Z,167.43
2022-09-28T12:51:44.886Z,157.20
2022-09-28T12:54:25.202Z,159.30
2022-09-28T12:57:00.302Z,157.20
2022-09-28T12:59:32.264Z,169.93
2022-09-28T13:02:22.278Z,155.07
2022-09-28T13:05:01.325Z,162.77
2022-09-28T13:07:33.267Z,162.53
2022-09-28T13:10:14.606Z,163.73
2022-09-28T13:12:53.728Z,171.90
2022-09-28T13:15:32.041Z,154.10
2022-09-28T13:18:07.074Z,163.83
2022-09-28T13:20:49.207Z,161.17
2022-09-28T13:23:20.559Z,173.40
2022-09-28T13:25:52.019Z,167.73
2022-09-28T13:28:26.269Z,166.33
2022-09-28T13:30:56.472Z,170.57
2022-09-28T13:33:30.279Z,164.97
2022-09-28T13:35:57.809Z,161.63
2022-09-28T13:38:51.856Z,164.07
2022-09-28T13:41:29.596Z,167.47
2022-09-28T13:44:27.287Z,164.67
2022-09-28T13:47:19.982Z,168.77
2022-09-28T13:49:57.428Z,166.67
2022-09-28T13:52:33.587Z,164.37
2022-09-28T13:55:15.481Z,159.30
2022-09-28T13:57:47.530Z,162.07
2022-09-28T14:00:22.030Z,163.73
2022-09-28T14:02:55.262Z,162.43
2022-09-28T14:05:46.083Z,165.57
2022-09-28T14:08:34.926Z,159.47
2022-09-28T14:11:25.780Z,162.23
2022-09-28T14:14:00.464Z,168.27
2022-09-28T14:16:32.062Z,165.50
2022-09-28T14:19:02.816Z,165.67
2022-09-28T14:21:55.588Z,153.77
2022-09-28T14:24:30.483Z,167.20
2022-09-28T14:27:11.135Z,168.70
2022-09-28T14:29:39.986Z,169.17
2022-09-28T14:32:24.682Z,165.97
2022-09-28T14:34:59.605Z,167.60
2022-09-28T14:37:46.764Z,169.93
2022-09-28T14:40:36.475Z,167.93
2022-09-28T14:43:26.173Z,167.67
2022-09-28T14:46:29.241Z,168.77
2022-09-28T14:49:01.630Z,164.30
2022-09-28T14:51:45.130Z,157.53
2022-09-28T14:54:18.492Z,171.10
2022-09-28T14:56:49.551Z,167.13
2022-09-28T14:59:19.663Z,168.20
2022-09-28T15:01:50.623Z,168.90
2022-09-28T15:04:20.117Z,169.93
2022-09-28T15:06:49.844Z,168.43
2022-09-28T15:09:28.045Z,166.00
2022-09-28T15:12:00.694Z,168.17
2022-09-28T15:14:31.615Z,170.00
2022-09-28T15:17:03.323Z,158.50
2022-09-28T15:19:34.599Z,169.43
2022-09-28T15:22:02.095Z,157.33
2022-09-28T15:24:34.325Z,165.83
2022-09-28T15:27:02.365Z,169.67
2022-09-28T15:29:33.220Z,174.47
2022-09-28T15:32:00.890Z,162.03
2022-09-28T15:34:56.383Z,168.30
2022-09-28T15:37:26.208Z,136.87
2022-09-28T15:39:54.977Z,149.90
2022-09-28T15:42:22.844Z,161.77
2022-09-28T15:45:07.715Z,165.57
2022-09-28T15:47:36.123Z,173.10
2022-09-28T15:50:06.163Z,165.73
2022-09-28T15:52:38.606Z,161.57
2022-09-28T15:55:18.358Z,167.23
2022-09-28T15:57:45.904Z,169.80
2022-09-28T16:00:26.224Z,166.27
2022-09-28T16:03:05.693Z,167.43
2022-09-28T16:05:37.739Z,163.33
2022-09-28T16:08:12.656Z,162.17
2022-09-28T16:10:53.648Z,164.60
2022-09-28T16:13:23.824Z,150.67
2022-09-28T16:15:57.902Z,140.03
2022-09-28T16:18:26.673Z,169.67
2022-09-28T16:20:55.520Z,159.47
2022-09-28T16:23:27.067Z,162.23
2022-09-28T16:25:58.669Z,167.80
2022-09-28T16:28:51.589Z,168.57
2022-09-28T16:31:33.115Z,167.07
2022-09-28T16:34:02.216Z,166.90
2022-09-28T16:36:45.695Z,167.37
2022-09-28T16:39:16.242Z,163.70
2022-09-28T16:41:46.426Z,164.57
2022-09-28T16:44:20.553Z,171.83
2022-09-28T16:46:48.183Z,169.77
2022-09-28T16:49:20.533Z,166.63
2022-09-28T16:51:48.596Z,171.67
2022-09-28T16:54:37.270Z,166.70
2022-09-28T16:57:06.759Z,164.57
2022-09-28T16:59:34.628Z,162.43
2022-09-28T17:02:02.116Z,160.70
2022-09-28T17:04:29.680Z,165.27
2022-09-28T17:06:58.261Z,164.07
2022-09-28T17:09:27.146Z,167.03
2022-09-28T17:11:56.040Z,166.90
2022-09-28T17:14:24.399Z,165.70
2022-09-28T17:17:11.579Z,167.27
2022-09-28T17:19:41.398Z,163.87
2022-09-28T17:22:09.163Z,161.03
2022-09-28T17:24:38.113Z,159.87
2022-09-28T17:27:06.861Z,164.77
2022-09-28T17:29:34.399Z,168.17
2022-09-28T17:32:02.148Z,161.43
2022-09-28T17:34:29.659Z,161.33
2022-09-28T17:36:57.154Z,163.53
2022-09-28T17:39:25.355Z,166.23
2022-09-28T17:41:54.203Z,162.90
2022-09-28T17:44:21.955Z,161.07
2022-09-28T17:46:51.137Z,154.20
2022-09-28T17:49:19.118Z,161.37
2022-09-28T17:51:46.913Z,165.23
2022-09-28T17:54:16.842Z,165.17
2022-09-28T17:56:44.392Z,160.10
2022-09-28T17:59:15.248Z,150.27
2022-09-28T18:01:42.799Z,160.57
2022-09-28T18:04:33.198Z,152.60
2022-09-28T18:07:00.953Z,162.97
2022-09-28T18:09:28.476Z,157.90
2022-09-28T18:12:01.277Z,162.70
2022-09-28T18:14:30.162Z,163.77
2022-09-28T18:16:57.684Z,163.60
2022-09-28T18:19:28.624Z,158.93
2022-09-28T18:21:59.374Z,162.30
2022-09-28T18:24:27.003Z,158.03
2022-09-28T18:26:54.497Z,164.07
2022-09-28T18:29:22.042Z,163.17
2022-09-28T18:31:50.906Z,167.37
2022-09-28T18:34:18.531Z,165.30
2022-09-28T18:36:46.312Z,166.17
2022-09-28T18:39:13.804Z,165.27
2022-09-28T18:41:42.680Z,162.87
2022-09-28T18:44:10.794Z,162.63
2022-09-28T18:46:38.481Z,162.23
2022-09-28T18:49:07.486Z,164.70
2022-09-28T18:51:35.011Z,162.23
2022-09-28T18:54:07.036Z,166.40
2022-09-28T18:56:37.150Z,163.07
2022-09-28T18:59:06.794Z,165.23
2022-09-28T19:01:37.872Z,160.67
2022-09-28T19:04:09.584Z,169.77
2022-09-28T19:06:40.599Z,162.33
2022-09-28T19:09:08.897Z,166.40
2022-09-28T19:11:36.455Z,161.60
2022-09-28T19:14:04.300Z,165.93
2022-09-28T19:16:33.593Z,164.50
2022-09-28T19:19:02.682Z,158.47
2022-09-28T19:21:32.462Z,165.93
2022-09-28T19:24:01.651Z,158.83
2022-09-28T19:26:29.968Z,164.10
2022-09-28T19:28:58.379Z,167.07
2022-09-28T19:31:26.661Z,164.07
2022-09-28T19:33:54.157Z,164.13
2022-09-28T19:36:23.939Z,164.17
2022-09-28T19:38:53.356Z,164.13
2022-09-28T19:41:39.304Z,167.47
2022-09-28T19:44:13.019Z,167.77
2022-09-28T19:46:41.072Z,158.83
2022-09-28T19:49:10.404Z,159.13
2022-09-28T19:51:46.906Z,158.33
2022-09-28T19:54:33.117Z,166.57
2022-09-28T19:57:07.737Z,167.30
2022-09-28T19:59:36.413Z,167.53
2022-09-28T20:02:04.154Z,167.53
2022-09-28T20:04:31.723Z,160.77
2022-09-28T20:06:59.226Z,162.67
2022-09-28T20:09:28.087Z,161.67
2022-09-28T20:11:55.596Z,170.13
2022-09-28T20:14:25.786Z,168.00
2022-09-28T20:16:55.772Z,173.67
2022-09-28T20:19:23.367Z,173.33
2022-09-28T20:21:51.314Z,171.73
2022-09-28T20:24:19.087Z,168.33
2022-09-28T20:26:49.441Z,174.13
2022-09-28T20:29:17.430Z,173.07
2022-09-28T20:31:45.576Z,176.13
2022-09-28T20:34:13.168Z,175.53
2022-09-28T20:36:42.306Z,177.00
2022-09-28T20:39:11.177Z,176.07
2022-09-28T20:41:38.771Z,177.67
2022-09-28T20:44:07.763Z,175.33
2022-09-28T20:46:35.817Z,165.93
2022-09-28T20:49:04.129Z,177.20
2022-09-28T20:51:31.894Z,175.70
2022-09-28T20:54:00.095Z,165.60
2022-09-28T20:56:28.478Z,168.00
2022-09-28T20:58:56.826Z,167.37
2022-09-28T21:01:27.281Z,171.23
2022-09-28T21:03:56.183Z,168.87
2022-09-28T21:06:25.547Z,169.60
2022-09-28T21:08:53.361Z,173.23
2022-09-28T21:11:22.216Z,168.30
2022-09-28T21:13:53.043Z,176.83
2022-09-28T21:16:20.876Z,166.63
2022-09-28T21:18:49.758Z,175.43
2022-09-28T21:21:18.623Z,169.87
2022-09-28T21:23:46.419Z,172.07
2022-09-28T21:26:18.765Z,174.27
2022-09-28T21:28:46.543Z,177.57
2022-09-28T21:31:15.345Z,170.60
2022-09-28T21:33:42.917Z,172.27
2022-09-28T21:36:12.226Z,176.03
2022-09-28T21:38:39.743Z,171.73
2022-09-28T21:41:07.303Z,169.83
2022-09-28T21:43:34.796Z,172.57
2022-09-28T21:46:02.749Z,170.77
2022-09-28T21:48:30.946Z,173.23
2022-09-28T21:50:59.711Z,170.17
2022-09-28T21:53:30.056Z,169.97
2022-09-28T21:55:58.382Z,168.30
2022-09-28T21:58:28.246Z,172.87
2022-09-28T22:01:02.201Z,175.40
2022-09-28T22:03:30.318Z,175.97
2022-09-28T22:05:57.901Z,177.80
2022-09-28T22:08:25.907Z,174.17
2022-09-28T22:11:01.487Z,176.60
2022-09-28T22:13:29.145Z,176.70
2022-09-28T22:15:57.682Z,176.10
2022-09-28T22:18:25.453Z,172.40
2022-09-28T22:20:59.502Z,171.40
2022-09-28T22:23:27.169Z,169.63
2022-09-28T22:26:01.058Z,177.83
2022-09-28T22:28:29.888Z,179.87
2022-09-28T22:30:58.019Z,178.67
2022-09-28T22:33:25.848Z,173.97
2022-09-28T22:35:53.781Z,178.33
2022-09-28T22:38:21.858Z,174.73
2022-09-28T22:40:49.817Z,171.47
2022-09-28T22:43:18.754Z,159.80
2022-09-28T22:45:46.518Z,168.47
2022-09-28T22:48:14.260Z,159.43
2022-09-28T22:50:49.091Z,164.20
2022-09-28T22:53:16.583Z,159.17
2022-09-28T22:55:44.098Z,158.90
2022-09-28T22:58:11.644Z,156.53
2022-09-28T23:00:40.566Z,176.43
2022-09-28T23:03:08.200Z,158.50
2022-09-28T23:05:35.786Z,160.73
2022-09-28T23:08:03.311Z,168.83
2022-09-28T23:10:30.825Z,159.63
2022-09-28T23:12:58.346Z,171.47
2022-09-28T23:15:26.122Z,164.87
2022-09-28T23:17:55.079Z,172.57
2022-09-28T23:20:23.564Z,181.77
2022-09-28T23:22:51.377Z,179.63
2022-09-28T23:25:19.520Z,173.57
2022-09-28T23:27:47.563Z,179.13
2022-09-28T23:30:15.538Z,173.53
2022-09-28T23:32:43.162Z,179.67
2022-09-28T23:35:12.831Z,180.20
2022-09-28T23:37:40.326Z,179.37
2022-09-28T23:40:08.512Z,180.00
2022-09-28T23:42:36.024Z,170.73
2022-09-28T23:45:03.547Z,177.53
2022-09-28T23:47:31.080Z,178.73
2022-09-28T23:49:58.693Z,177.30
2022-09-28T23:52:27.556Z,174.07
2022-09-28T23:54:55.078Z,178.77
2022-09-28T23:57:22.560Z,178.13
2022-09-28T23:59:50.095Z,172.83
